sensor_id;sensor_type;location;lat;lon;timestamp;P1;durP1;ratioP1;P2;durP2;ratioP2
6497;SDS011;3282;48.358;10.958;2022-09-03T00:02:05;3.58;;;2.22;;
6497;SDS011;3282;48.358;10.958;2022-09-03T00:04:46;4.28;;;2.13;;
6497;SDS011;3282;48.358;10.958;2022-09-03T00:08:13;3.80;;;1.90;;
6497;SDS011;3282;48.358;10.958;2022-09-03T00:10:43;4.75;;;2.00;;
6497;SDS011;3282;48.358;10.958;2022-09-03T00:13:36;3.90;;;2.10;;
6497;SDS011;3282;48.358;10.958;2022-09-03T00:16:08;4.97;;;2.50;;
6497;SDS011;3282;48.358;10.958;2022-09-03T00:18:42;4.82;;;2.58;;
6497;SDS011;3282;48.358;10.958;2022-09-03T00:21:17;4.00;;;2.20;;
6497;SDS011;3282;48.358;10.958;2022-09-03T00:23:52;4.80;;;2.42;;
6497;SDS011;3282;48.358;10.958;2022-09-03T00:26:27;5.00;;;2.20;;
6497;SDS011;3282;48.358;10.958;2022-09-03T00:28:57;3.70;;;2.25;;
6497;SDS011;3282;48.358;10.958;2022-09-03T00:31:38;5.00;;;2.40;;
6497;SDS011;3282;48.358;10.958;2022-09-03T00:36:37;6.80;;;2.40;;
6497;SDS011;3282;48.358;10.958;2022-09-03T00:39:08;4.68;;;2.30;;
6497;SDS011;3282;48.358;10.958;2022-09-03T00:50:30;5.43;;;2.20;;
6497;SDS011;3282;48.358;10.958;2022-09-03T00:53:14;7.15;;;2.58;;
6497;SDS011;3282;48.358;10.958;2022-09-03T00:55:55;3.30;;;2.10;;
6497;SDS011;3282;48.358;10.958;2022-09-03T01:01:27;7.15;;;2.53;;
6497;SDS011;3282;48.358;10.958;2022-09-03T01:04:21;6.07;;;2.45;;
6497;SDS011;3282;48.358;10.958;2022-09-03T01:06:55;3.97;;;2.20;;
6497;SDS011;3282;48.358;10.958;2022-09-03T01:12:14;4.88;;;2.30;;
6497;SDS011;3282;48.358;10.958;2022-09-03T01:23:00;4.90;;;2.40;;
6497;SDS011;3282;48.358;10.958;2022-09-03T01:28:18;3.58;;;2.28;;
6497;SDS011;3282;48.358;10.958;2022-09-03T01:30:56;5.18;;;2.55;;
6497;SDS011;3282;48.358;10.958;2022-09-03T01:33:43;4.75;;;2.60;;
6497;SDS011;3282;48.358;10.958;2022-09-03T01:39:03;4.00;;;2.20;;
6497;SDS011;3282;48.358;10.958;2022-09-03T01:41:36;4.75;;;2.38;;
6497;SDS011;3282;48.358;10.958;2022-09-03T01:44:31;3.92;;;2.17;;
6497;SDS011;3282;48.358;10.958;2022-09-03T01:47:26;3.00;;;2.10;;
6497;SDS011;3282;48.358;10.958;2022-09-03T01:50:12;3.95;;;2.30;;
6497;SDS011;3282;48.358;10.958;2022-09-03T01:58:27;4.45;;;2.50;;
6497;SDS011;3282;48.358;10.958;2022-09-03T02:01:06;4.80;;;2.80;;
6497;SDS011;3282;48.358;10.958;2022-09-03T02:03:43;4.38;;;2.40;;
6497;SDS011;3282;48.358;10.958;2022-09-03T02:06:11;5.40;;;2.80;;
6497;SDS011;3282;48.358;10.958;2022-09-03T02:12:02;6.72;;;3.15;;
6497;SDS011;3282;48.358;10.958;2022-09-03T02:14:33;5.35;;;2.70;;
6497;SDS011;3282;48.358;10.958;2022-09-03T02:17:01;6.30;;;2.92;;
6497;SDS011;3282;48.358;10.958;2022-09-03T02:19:30;4.68;;;2.80;;
6497;SDS011;3282;48.358;10.958;2022-09-03T02:21:57;4.60;;;2.72;;
6497;SDS011;3282;48.358;10.958;2022-09-03T02:24:24;5.13;;;3.10;;
6497;SDS011;3282;48.358;10.958;2022-09-03T02:26:51;5.20;;;2.80;;
6497;SDS011;3282;48.358;10.958;2022-09-03T02:29:18;7.22;;;2.92;;
6497;SDS011;3282;48.358;10.958;2022-09-03T02:31:45;4.35;;;2.83;;
6497;SDS011;3282;48.358;10.958;2022-09-03T02:34:12;5.53;;;2.90;;
6497;SDS011;3282;48.358;10.958;2022-09-03T02:36:40;4.00;;;2.80;;
6497;SDS011;3282;48.358;10.958;2022-09-03T02:39:11;5.63;;;2.72;;
6497;SDS011;3282;48.358;10.958;2022-09-03T02:41:39;3.83;;;2.80;;
6497;SDS011;3282;48.358;10.958;2022-09-03T02:44:13;5.43;;;3.08;;
6497;SDS011;3282;48.358;10.958;2022-09-03T02:46:51;6.07;;;3.15;;
6497;SDS011;3282;48.358;10.958;2022-09-03T02:49:22;4.55;;;3.17;;
6497;SDS011;3282;48.358;10.958;2022-09-03T02:51:48;3.92;;;2.88;;
6497;SDS011;3282;48.358;10.958;2022-09-03T02:54:15;4.63;;;2.90;;
6497;SDS011;3282;48.358;10.958;2022-09-03T02:56:46;4.85;;;3.08;;
6497;SDS011;3282;48.358;10.958;2022-09-03T02:59:14;5.05;;;3.10;;
6497;SDS011;3282;48.358;10.958;2022-09-03T03:01:43;4.13;;;2.75;;
6497;SDS011;3282;48.358;10.958;2022-09-03T03:04:11;5.75;;;3.00;;
6497;SDS011;3282;48.358;10.958;2022-09-03T03:06:38;5.00;;;2.90;;
6497;SDS011;3282;48.358;10.958;2022-09-03T03:09:05;5.03;;;3.20;;
6497;SDS011;3282;48.358;10.958;2022-09-03T03:11:32;5.10;;;3.13;;
6497;SDS011;3282;48.358;10.958;2022-09-03T03:14:00;4.80;;;3.30;;
6497;SDS011;3282;48.358;10.958;2022-09-03T03:16:27;5.28;;;3.03;;
6497;SDS011;3282;48.358;10.958;2022-09-03T03:18:55;5.40;;;3.33;;
6497;SDS011;3282;48.358;10.958;2022-09-03T03:21:22;7.03;;;3.30;;
6497;SDS011;3282;48.358;10.958;2022-09-03T03:23:48;5.47;;;3.28;;
6497;SDS011;3282;48.358;10.958;2022-09-03T03:26:16;4.90;;;2.83;;
6497;SDS011;3282;48.358;10.958;2022-09-03T03:28:44;6.05;;;3.55;;
6497;SDS011;3282;48.358;10.958;2022-09-03T03:31:13;5.05;;;2.95;;
6497;SDS011;3282;48.358;10.958;2022-09-03T03:33:44;8.48;;;3.00;;
6497;SDS011;3282;48.358;10.958;2022-09-03T03:36:15;4.85;;;3.10;;
6497;SDS011;3282;48.358;10.958;2022-09-03T03:38:42;4.35;;;3.33;;
6497;SDS011;3282;48.358;10.958;2022-09-03T03:41:13;6.13;;;3.00;;
6497;SDS011;3282;48.358;10.958;2022-09-03T03:43:42;4.78;;;3.47;;
6497;SDS011;3282;48.358;10.958;2022-09-03T03:46:09;5.55;;;3.00;;
6497;SDS011;3282;48.358;10.958;2022-09-03T03:48:37;5.13;;;3.20;;
6497;SDS011;3282;48.358;10.958;2022-09-03T03:51:07;6.43;;;3.30;;
6497;SDS011;3282;48.358;10.958;2022-09-03T03:53:36;5.60;;;3.05;;
6497;SDS011;3282;48.358;10.958;2022-09-03T03:56:08;6.07;;;3.33;;
6497;SDS011;3282;48.358;10.958;2022-09-03T03:58:37;3.83;;;2.70;;
6497;SDS011;3282;48.358;10.958;2022-09-03T04:03:35;6.53;;;3.30;;
6497;SDS011;3282;48.358;10.958;2022-09-03T04:06:02;6.05;;;3.28;;
6497;SDS011;3282;48.358;10.958;2022-09-03T04:08:32;4.32;;;3.33;;
6497;SDS011;3282;48.358;10.958;2022-09-03T04:11:00;4.43;;;2.90;;
6497;SDS011;3282;48.358;10.958;2022-09-03T04:13:32;7.07;;;3.22;;
6497;SDS011;3282;48.358;10.958;2022-09-03T04:16:03;5.15;;;3.10;;
6497;SDS011;3282;48.358;10.958;2022-09-03T04:18:31;4.65;;;3.10;;
6497;SDS011;3282;48.358;10.958;2022-09-03T04:20:59;5.15;;;3.30;;
6497;SDS011;3282;48.358;10.958;2022-09-03T04:23:33;6.47;;;3.08;;
6497;SDS011;3282;48.358;10.958;2022-09-03T04:26:02;4.75;;;3.50;;
6497;SDS011;3282;48.358;10.958;2022-09-03T04:28:30;4.40;;;3.30;;
6497;SDS011;3282;48.358;10.958;2022-09-03T04:31:01;4.97;;;3.45;;
6497;SDS011;3282;48.358;10.958;2022-09-03T04:33:33;4.25;;;3.10;;
6497;SDS011;3282;48.358;10.958;2022-09-03T04:38:31;5.70;;;3.25;;
6497;SDS011;3282;48.358;10.958;2022-09-03T04:40:59;5.32;;;3.42;;
6497;SDS011;3282;48.358;10.958;2022-09-03T04:43:26;6.28;;;3.40;;
6497;SDS011;3282;48.358;10.958;2022-09-03T04:46:00;5.82;;;3.20;;
6497;SDS011;3282;48.358;10.958;2022-09-03T04:48:29;6.20;;;3.80;;
6497;SDS011;3282;48.358;10.958;2022-09-03T04:51:00;5.15;;;3.50;;
6497;SDS011;3282;48.358;10.958;2022-09-03T04:53:33;5.65;;;3.60;;
6497;SDS011;3282;48.358;10.958;2022-09-03T04:56:01;5.55;;;3.60;;
6497;SDS011;3282;48.358;10.958;2022-09-03T04:58:28;5.55;;;3.13;;
6497;SDS011;3282;48.358;10.958;2022-09-03T05:00:55;5.22;;;3.20;;
6497;SDS011;3282;48.358;10.958;2022-09-03T05:03:21;5.80;;;3.05;;
6497;SDS011;3282;48.358;10.958;2022-09-03T05:05:52;6.03;;;3.40;;
6497;SDS011;3282;48.358;10.958;2022-09-03T05:08:20;5.57;;;3.30;;
6497;SDS011;3282;48.358;10.958;2022-09-03T05:10:47;5.30;;;3.35;;
6497;SDS011;3282;48.358;10.958;2022-09-03T05:13:20;5.68;;;3.33;;
6497;SDS011;3282;48.358;10.958;2022-09-03T05:15:48;5.03;;;3.47;;
6497;SDS011;3282;48.358;10.958;2022-09-03T05:18:15;7.00;;;3.50;;
6497;SDS011;3282;48.358;10.958;2022-09-03T05:20:41;4.32;;;3.30;;
6497;SDS011;3282;48.358;10.958;2022-09-03T05:23:08;5.88;;;3.50;;
6497;SDS011;3282;48.358;10.958;2022-09-03T05:25:35;5.50;;;3.35;;
6497;SDS011;3282;48.358;10.958;2022-09-03T05:28:03;5.20;;;3.72;;
6497;SDS011;3282;48.358;10.958;2022-09-03T05:30:30;5.72;;;3.83;;
6497;SDS011;3282;48.358;10.958;2022-09-03T05:32:57;4.53;;;3.50;;
6497;SDS011;3282;48.358;10.958;2022-09-03T05:35:23;6.93;;;3.67;;
6497;SDS011;3282;48.358;10.958;2022-09-03T05:37:55;7.25;;;4.00;;
6497;SDS011;3282;48.358;10.958;2022-09-03T05:40:24;6.63;;;3.67;;
6497;SDS011;3282;48.358;10.958;2022-09-03T05:42:54;5.63;;;3.53;;
6497;SDS011;3282;48.358;10.958;2022-09-03T05:45:23;6.90;;;3.70;;
6497;SDS011;3282;48.358;10.958;2022-09-03T05:47:50;5.93;;;3.85;;
6497;SDS011;3282;48.358;10.958;2022-09-03T05:50:16;5.85;;;4.18;;
6497;SDS011;3282;48.358;10.958;2022-09-03T05:52:43;7.05;;;3.78;;
6497;SDS011;3282;48.358;10.958;2022-09-03T05:55:10;6.03;;;3.80;;
6497;SDS011;3282;48.358;10.958;2022-09-03T05:57:38;7.10;;;4.00;;
6497;SDS011;3282;48.358;10.958;2022-09-03T06:00:08;5.75;;;4.00;;
6497;SDS011;3282;48.358;10.958;2022-09-03T06:02:37;7.93;;;4.15;;
6497;SDS011;3282;48.358;10.958;2022-09-03T06:05:04;10.38;;;5.18;;
6497;SDS011;3282;48.358;10.958;2022-09-03T06:07:30;10.55;;;5.75;;
6497;SDS011;3282;48.358;10.958;2022-09-03T06:09:59;7.35;;;4.82;;
6497;SDS011;3282;48.358;10.958;2022-09-03T06:12:25;9.70;;;5.32;;
6497;SDS011;3282;48.358;10.958;2022-09-03T06:14:52;7.80;;;5.75;;
6497;SDS011;3282;48.358;10.958;2022-09-03T06:17:21;7.20;;;5.03;;
6497;SDS011;3282;48.358;10.958;2022-09-03T06:19:48;9.90;;;5.30;;
6497;SDS011;3282;48.358;10.958;2022-09-03T06:22:14;8.20;;;5.65;;
6497;SDS011;3282;48.358;10.958;2022-09-03T06:24:42;8.32;;;5.90;;
6497;SDS011;3282;48.358;10.958;2022-09-03T06:27:08;8.63;;;5.70;;
6497;SDS011;3282;48.358;10.958;2022-09-03T06:29:35;8.63;;;5.35;;
6497;SDS011;3282;48.358;10.958;2022-09-03T06:32:02;6.65;;;5.20;;
6497;SDS011;3282;48.358;10.958;2022-09-03T06:34:30;9.10;;;6.40;;
6497;SDS011;3282;48.358;10.958;2022-09-03T06:36:57;9.60;;;5.90;;
6497;SDS011;3282;48.358;10.958;2022-09-03T06:39:24;9.30;;;6.95;;
6497;SDS011;3282;48.358;10.958;2022-09-03T06:41:52;9.98;;;7.60;;
6497;SDS011;3282;48.358;10.958;2022-09-03T06:44:26;8.27;;;6.07;;
6497;SDS011;3282;48.358;10.958;2022-09-03T06:46:52;7.00;;;5.43;;
6497;SDS011;3282;48.358;10.958;2022-09-03T06:49:19;9.25;;;5.95;;
6497;SDS011;3282;48.358;10.958;2022-09-03T06:51:46;7.93;;;5.60;;
6497;SDS011;3282;48.358;10.958;2022-09-03T06:54:13;9.40;;;5.97;;
6497;SDS011;3282;48.358;10.958;2022-09-03T06:56:41;8.82;;;6.03;;
6497;SDS011;3282;48.358;10.958;2022-09-03T06:59:11;12.13;;;6.78;;
6497;SDS011;3282;48.358;10.958;2022-09-03T07:01:39;9.40;;;5.75;;
6497;SDS011;3282;48.358;10.958;2022-09-03T07:04:09;8.70;;;6.15;;
6497;SDS011;3282;48.358;10.958;2022-09-03T07:06:38;6.65;;;5.63;;
6497;SDS011;3282;48.358;10.958;2022-09-03T07:09:07;9.25;;;6.07;;
6497;SDS011;3282;48.358;10.958;2022-09-03T07:11:35;8.48;;;6.03;;
6497;SDS011;3282;48.358;10.958;2022-09-03T07:14:03;7.00;;;5.80;;
6497;SDS011;3282;48.358;10.958;2022-09-03T07:16:34;8.90;;;5.68;;
6497;SDS011;3282;48.358;10.958;2022-09-03T07:19:02;7.63;;;6.10;;
6497;SDS011;3282;48.358;10.958;2022-09-03T07:21:31;8.63;;;6.10;;
6497;SDS011;3282;48.358;10.958;2022-09-03T07:24:02;11.40;;;6.95;;
6497;SDS011;3282;48.358;10.958;2022-09-03T07:26:34;10.52;;;6.85;;
6497;SDS011;3282;48.358;10.958;2022-09-03T07:29:03;8.43;;;6.40;;
6497;SDS011;3282;48.358;10.958;2022-09-03T07:31:33;9.05;;;6.22;;
6497;SDS011;3282;48.358;10.958;2022-09-03T07:34:06;10.68;;;6.80;;
6497;SDS011;3282;48.358;10.958;2022-09-03T07:36:43;9.45;;;6.47;;
6497;SDS011;3282;48.358;10.958;2022-09-03T07:39:14;9.00;;;6.53;;
6497;SDS011;3282;48.358;10.958;2022-09-03T07:41:42;8.18;;;6.15;;
6497;SDS011;3282;48.358;10.958;2022-09-03T07:44:11;9.82;;;6.63;;
6497;SDS011;3282;48.358;10.958;2022-09-03T07:46:41;8.20;;;6.00;;
6497;SDS011;3282;48.358;10.958;2022-09-03T07:49:10;7.10;;;5.57;;
6497;SDS011;3282;48.358;10.958;2022-09-03T07:51:37;7.15;;;6.05;;
6497;SDS011;3282;48.358;10.958;2022-09-03T07:54:06;9.50;;;6.63;;
6497;SDS011;3282;48.358;10.958;2022-09-03T07:56:35;8.88;;;6.05;;
6497;SDS011;3282;48.358;10.958;2022-09-03T07:59:02;9.82;;;6.35;;
6497;SDS011;3282;48.358;10.958;2022-09-03T08:01:31;9.43;;;5.80;;
6497;SDS011;3282;48.358;10.958;2022-09-03T08:03:58;7.35;;;6.20;;
6497;SDS011;3282;48.358;10.958;2022-09-03T08:06:27;9.13;;;6.20;;
6497;SDS011;3282;48.358;10.958;2022-09-03T08:08:55;7.65;;;6.15;;
6497;SDS011;3282;48.358;10.958;2022-09-03T08:11:30;8.00;;;6.05;;
6497;SDS011;3282;48.358;10.958;2022-09-03T08:14:01;7.28;;;5.88;;
6497;SDS011;3282;48.358;10.958;2022-09-03T08:16:33;6.85;;;5.65;;
6497;SDS011;3282;48.358;10.958;2022-09-03T08:19:01;7.78;;;5.88;;
6497;SDS011;3282;48.358;10.958;2022-09-03T08:21:28;7.70;;;5.90;;
6497;SDS011;3282;48.358;10.958;2022-09-03T08:23:55;7.05;;;5.32;;
6497;SDS011;3282;48.358;10.958;2022-09-03T08:26:30;9.02;;;5.13;;
6497;SDS011;3282;48.358;10.958;2022-09-03T08:28:58;6.00;;;4.90;;
6497;SDS011;3282;48.358;10.958;2022-09-03T08:31:25;6.10;;;5.35;;
6497;SDS011;3282;48.358;10.958;2022-09-03T08:33:54;6.40;;;5.00;;
6497;SDS011;3282;48.358;10.958;2022-09-03T08:36:28;7.07;;;5.07;;
6497;SDS011;3282;48.358;10.958;2022-09-03T08:39:00;5.88;;;4.93;;
6497;SDS011;3282;48.358;10.958;2022-09-03T08:44:30;6.75;;;5.38;;
6497;SDS011;3282;48.358;10.958;2022-09-03T08:52:32;6.78;;;4.50;;
6497;SDS011;3282;48.358;10.958;2022-09-03T08:57:35;5.57;;;4.40;;
6497;SDS011;3282;48.358;10.958;2022-09-03T09:00:08;5.97;;;4.00;;
6497;SDS011;3282;48.358;10.958;2022-09-03T09:05:42;5.63;;;4.10;;
6497;SDS011;3282;48.358;10.958;2022-09-03T09:11:20;5.30;;;4.03;;
6497;SDS011;3282;48.358;10.958;2022-09-03T09:16:18;5.55;;;4.18;;
6497;SDS011;3282;48.358;10.958;2022-09-03T09:21:45;5.60;;;3.90;;
6497;SDS011;3282;48.358;10.958;2022-09-03T09:24:41;4.95;;;3.97;;
6497;SDS011;3282;48.358;10.958;2022-09-03T09:27:12;4.68;;;3.70;;
6497;SDS011;3282;48.358;10.958;2022-09-03T09:29:42;3.92;;;2.90;;
6497;SDS011;3282;48.358;10.958;2022-09-03T09:32:13;4.80;;;3.40;;
6497;SDS011;3282;48.358;10.958;2022-09-03T09:34:43;4.25;;;2.90;;
6497;SDS011;3282;48.358;10.958;2022-09-03T09:37:17;8.05;;;2.92;;
6497;SDS011;3282;48.358;10.958;2022-09-03T09:39:54;5.07;;;2.88;;
6497;SDS011;3282;48.358;10.958;2022-09-03T09:42:26;3.80;;;2.50;;
6497;SDS011;3282;48.358;10.958;2022-09-03T09:44:55;3.40;;;2.40;;
6497;SDS011;3282;48.358;10.958;2022-09-03T09:47:23;3.63;;;2.50;;
6497;SDS011;3282;48.358;10.958;2022-09-03T09:49:55;3.50;;;2.47;;
6497;SDS011;3282;48.358;10.958;2022-09-03T09:52:23;3.38;;;2.60;;
6497;SDS011;3282;48.358;10.958;2022-09-03T09:55:04;3.50;;;2.67;;
6497;SDS011;3282;48.358;10.958;2022-09-03T09:57:33;4.75;;;2.90;;
6497;SDS011;3282;48.358;10.958;2022-09-03T10:02:36;4.63;;;3.00;;
6497;SDS011;3282;48.358;10.958;2022-09-03T10:05:11;4.13;;;3.20;;
6497;SDS011;3282;48.358;10.958;2022-09-03T10:07:38;4.20;;;2.90;;
6497;SDS011;3282;48.358;10.958;2022-09-03T10:10:06;3.83;;;2.75;;
6497;SDS011;3282;48.358;10.958;2022-09-03T10:15:36;4.55;;;2.80;;
6497;SDS011;3282;48.358;10.958;2022-09-03T10:23:49;3.90;;;2.65;;
6497;SDS011;3282;48.358;10.958;2022-09-03T10:26:22;4.93;;;2.97;;
6497;SDS011;3282;48.358;10.958;2022-09-03T10:28:58;4.07;;;2.80;;
6497;SDS011;3282;48.358;10.958;2022-09-03T10:33:59;4.68;;;2.83;;
6497;SDS011;3282;48.358;10.958;2022-09-03T10:44:30;3.65;;;2.40;;
6497;SDS011;3282;48.358;10.958;2022-09-03T10:47:17;4.20;;;2.60;;
6497;SDS011;3282;48.358;10.958;2022-09-03T10:52:43;3.42;;;2.67;;
6497;SDS011;3282;48.358;10.958;2022-09-03T11:00:31;3.85;;;2.60;;
6497;SDS011;3282;48.358;10.958;2022-09-03T11:09:01;3.38;;;2.50;;
6497;SDS011;3282;48.358;10.958;2022-09-03T11:11:40;4.07;;;2.42;;
6497;SDS011;3282;48.358;10.958;2022-09-03T11:14:15;3.35;;;2.40;;
6497;SDS011;3282;48.358;10.958;2022-09-03T11:16:51;3.22;;;2.30;;
6497;SDS011;3282;48.358;10.958;2022-09-03T11:19:31;3.25;;;2.28;;
6497;SDS011;3282;48.358;10.958;2022-09-03T11:22:01;3.80;;;2.17;;
6497;SDS011;3282;48.358;10.958;2022-09-03T11:24:30;3.85;;;2.50;;
6497;SDS011;3282;48.358;10.958;2022-09-03T11:27:01;4.05;;;2.45;;
6497;SDS011;3282;48.358;10.958;2022-09-03T11:29:52;4.07;;;2.50;;
6497;SDS011;3282;48.358;10.958;2022-09-03T11:32:21;4.03;;;2.50;;
6497;SDS011;3282;48.358;10.958;2022-09-03T11:34:52;3.50;;;2.33;;
6497;SDS011;3282;48.358;10.958;2022-09-03T11:37:24;3.45;;;2.28;;
6497;SDS011;3282;48.358;10.958;2022-09-03T11:39:53;3.55;;;2.00;;
6497;SDS011;3282;48.358;10.958;2022-09-03T11:42:31;3.42;;;2.10;;
6497;SDS011;3282;48.358;10.958;2022-09-03T11:47:52;3.55;;;1.90;;
6497;SDS011;3282;48.358;10.958;2022-09-03T11:52:50;2.83;;;1.90;;
6497;SDS011;3282;48.358;10.958;2022-09-03T11:55:26;4.05;;;1.77;;
6497;SDS011;3282;48.358;10.958;2022-09-03T11:58:13;2.70;;;1.88;;
6497;SDS011;3282;48.358;10.958;2022-09-03T12:00:49;2.55;;;1.70;;
6497;SDS011;3282;48.358;10.958;2022-09-03T12:03:20;3.45;;;1.60;;
6497;SDS011;3282;48.358;10.958;2022-09-03T12:08:39;2.57;;;1.70;;
6497;SDS011;3282;48.358;10.958;2022-09-03T12:11:32;2.65;;;1.70;;
6497;SDS011;3282;48.358;10.958;2022-09-03T12:22:13;2.92;;;1.75;;
6497;SDS011;3282;48.358;10.958;2022-09-03T12:24:41;2.05;;;1.40;;
6497;SDS011;3282;48.358;10.958;2022-09-03T12:27:31;3.67;;;1.60;;
6497;SDS011;3282;48.358;10.958;2022-09-03T12:29:59;3.85;;;1.60;;
6497;SDS011;3282;48.358;10.958;2022-09-03T12:32:31;2.95;;;1.60;;
6497;SDS011;3282;48.358;10.958;2022-09-03T12:35:19;3.60;;;1.45;;
6497;SDS011;3282;48.358;10.958;2022-09-03T12:38:07;2.00;;;1.30;;
6497;SDS011;3282;48.358;10.958;2022-09-03T12:40:41;1.88;;;1.20;;
6497;SDS011;3282;48.358;10.958;2022-09-03T12:43:28;3.10;;;1.40;;
6497;SDS011;3282;48.358;10.958;2022-09-03T12:46:12;2.85;;;1.50;;
6497;SDS011;3282;48.358;10.958;2022-09-03T12:48:45;2.25;;;1.40;;
6497;SDS011;3282;48.358;10.958;2022-09-03T12:51:38;2.22;;;1.33;;
6497;SDS011;3282;48.358;10.958;2022-09-03T12:54:20;2.10;;;1.40;;
6497;SDS011;3282;48.358;10.958;2022-09-03T12:56:49;2.05;;;1.35;;
6497;SDS011;3282;48.358;10.958;2022-09-03T12:59:20;2.15;;;1.30;;
6497;SDS011;3282;48.358;10.958;2022-09-03T13:01:50;2.33;;;1.30;;
6497;SDS011;3282;48.358;10.958;2022-09-03T13:04:30;3.47;;;1.38;;
6497;SDS011;3282;48.358;10.958;2022-09-03T13:09:29;2.17;;;1.40;;
6497;SDS011;3282;48.358;10.958;2022-09-03T13:11:59;2.00;;;1.40;;
6497;SDS011;3282;48.358;10.958;2022-09-03T13:14:40;2.35;;;1.45;;
6497;SDS011;3282;48.358;10.958;2022-09-03T13:20:14;2.55;;;1.50;;
6497;SDS011;3282;48.358;10.958;2022-09-03T13:31:37;2.20;;;1.35;;
6497;SDS011;3282;48.358;10.958;2022-09-03T13:34:12;2.67;;;1.30;;
6497;SDS011;3282;48.358;10.958;2022-09-03T13:36:46;4.95;;;1.67;;
6497;SDS011;3282;48.358;10.958;2022-09-03T13:42:26;7.30;;;2.10;;
6497;SDS011;3282;48.358;10.958;2022-09-03T13:45:04;4.90;;;1.92;;
6497;SDS011;3282;48.358;10.958;2022-09-03T13:47:47;4.43;;;1.83;;
6497;SDS011;3282;48.358;10.958;2022-09-03T13:50:41;3.78;;;1.40;;
6497;SDS011;3282;48.358;10.958;2022-09-03T13:53:21;3.27;;;1.77;;
6497;SDS011;3282;48.358;10.958;2022-09-03T13:56:05;3.05;;;1.55;;
6497;SDS011;3282;48.358;10.958;2022-09-03T13:58:45;2.50;;;1.50;;
6497;SDS011;3282;48.358;10.958;2022-09-03T14:03:56;2.60;;;1.42;;
6497;SDS011;3282;48.358;10.958;2022-09-03T14:16:49;3.25;;;1.60;;
6497;SDS011;3282;48.358;10.958;2022-09-03T14:19:31;3.33;;;2.00;;
6497;SDS011;3282;48.358;10.958;2022-09-03T14:22:07;3.80;;;1.60;;
6497;SDS011;3282;48.358;10.958;2022-09-03T14:24:51;3.90;;;1.65;;
6497;SDS011;3282;48.358;10.958;2022-09-03T14:27:22;3.67;;;1.50;;
6497;SDS011;3282;48.358;10.958;2022-09-03T14:29:58;3.17;;;1.70;;
6497;SDS011;3282;48.358;10.958;2022-09-03T14:35:46;2.92;;;1.70;;
6497;SDS011;3282;48.358;10.958;2022-09-03T14:41:36;4.93;;;1.98;;
6497;SDS011;3282;48.358;10.958;2022-09-03T14:52:32;3.67;;;1.60;;
6497;SDS011;3282;48.358;10.958;2022-09-03T15:00:31;11.50;;;3.05;;
6497;SDS011;3282;48.358;10.958;2022-09-03T15:03:09;7.05;;;2.00;;
6497;SDS011;3282;48.358;10.958;2022-09-03T15:11:52;6.78;;;2.00;;
6497;SDS011;3282;48.358;10.958;2022-09-03T15:33:56;3.45;;;2.10;;
6497;SDS011;3282;48.358;10.958;2022-09-03T15:36:48;5.82;;;1.98;;
6497;SDS011;3282;48.358;10.958;2022-09-03T15:39:24;3.38;;;1.88;;
6497;SDS011;3282;48.358;10.958;2022-09-03T15:44:44;3.05;;;1.88;;
6497;SDS011;3282;48.358;10.958;2022-09-03T15:50:33;3.17;;;2.00;;
6497;SDS011;3282;48.358;10.958;2022-09-03T15:55:47;4.18;;;2.15;;
6497;SDS011;3282;48.358;10.958;2022-09-03T15:58:33;3.17;;;1.85;;
6497;SDS011;3282;48.358;10.958;2022-09-03T16:01:05;4.03;;;2.17;;
6497;SDS011;3282;48.358;10.958;2022-09-03T16:06:19;3.85;;;1.90;;
6497;SDS011;3282;48.358;10.958;2022-09-03T16:09:00;4.47;;;1.90;;
6497;SDS011;3282;48.358;10.958;2022-09-03T16:11:36;5.50;;;2.03;;
6497;SDS011;3282;48.358;10.958;2022-09-03T16:14:21;4.25;;;2.00;;
6497;SDS011;3282;48.358;10.958;2022-09-03T16:16:58;4.63;;;1.92;;
6497;SDS011;3282;48.358;10.958;2022-09-03T16:19:36;4.43;;;2.40;;
6497;SDS011;3282;48.358;10.958;2022-09-03T16:22:28;3.10;;;1.80;;
6497;SDS011;3282;48.358;10.958;2022-09-03T16:25:00;4.18;;;1.92;;
6497;SDS011;3282;48.358;10.958;2022-09-03T16:27:33;4.43;;;1.90;;
6497;SDS011;3282;48.358;10.958;2022-09-03T16:30:13;3.22;;;2.00;;
6497;SDS011;3282;48.358;10.958;2022-09-03T16:33:01;4.18;;;2.00;;
6497;SDS011;3282;48.358;10.958;2022-09-03T16:38:38;3.05;;;1.92;;
6497;SDS011;3282;48.358;10.958;2022-09-03T16:46:24;4.38;;;2.00;;
6497;SDS011;3282;48.358;10.958;2022-09-03T16:54:19;3.63;;;1.90;;
6497;SDS011;3282;48.358;10.958;2022-09-03T16:57:31;4.35;;;2.20;;
6497;SDS011;3282;48.358;10.958;2022-09-03T17:00:20;5.53;;;2.05;;
6497;SDS011;3282;48.358;10.958;2022-09-03T17:05:17;4.32;;;1.95;;
6497;SDS011;3282;48.358;10.958;2022-09-03T17:10:51;4.35;;;1.90;;
6497;SDS011;3282;48.358;10.958;2022-09-03T17:30:57;5.32;;;1.77;;
6497;SDS011;3282;48.358;10.958;2022-09-03T17:36:36;4.70;;;2.50;;
6497;SDS011;3282;48.358;10.958;2022-09-03T17:42:02;3.60;;;1.77;;
6497;SDS011;3282;48.358;10.958;2022-09-03T17:44:49;3.50;;;1.85;;
6497;SDS011;3282;48.358;10.958;2022-09-03T17:50:28;4.15;;;2.00;;
6497;SDS011;3282;48.358;10.958;2022-09-03T17:52:59;4.40;;;1.80;;
6497;SDS011;3282;48.358;10.958;2022-09-03T17:55:39;4.65;;;1.80;;
6497;SDS011;3282;48.358;10.958;2022-09-03T18:00:43;3.78;;;2.00;;
6497;SDS011;3282;48.358;10.958;2022-09-03T18:06:08;3.55;;;2.10;;
6497;SDS011;3282;48.358;10.958;2022-09-03T18:08:50;3.17;;;1.95;;
6497;SDS011;3282;48.358;10.958;2022-09-03T18:11:25;4.22;;;2.10;;
6497;SDS011;3282;48.358;10.958;2022-09-03T18:14:24;5.20;;;2.28;;
6497;SDS011;3282;48.358;10.958;2022-09-03T18:22:49;6.78;;;2.20;;
6497;SDS011;3282;48.358;10.958;2022-09-03T18:25:55;3.85;;;2.15;;
6497;SDS011;3282;48.358;10.958;2022-09-03T18:31:38;3.60;;;2.20;;
6497;SDS011;3282;48.358;10.958;2022-09-03T18:34:31;4.03;;;2.30;;
6497;SDS011;3282;48.358;10.958;2022-09-03T18:37:22;3.80;;;2.03;;
6497;SDS011;3282;48.358;10.958;2022-09-03T18:40:10;4.10;;;2.25;;
6497;SDS011;3282;48.358;10.958;2022-09-03T18:49:07;5.22;;;3.22;;
6497;SDS011;3282;48.358;10.958;2022-09-03T19:04:08;4.07;;;2.22;;
6497;SDS011;3282;48.358;10.958;2022-09-03T19:07:01;5.70;;;2.30;;
6497;SDS011;3282;48.358;10.958;2022-09-03T19:10:08;4.95;;;2.45;;
6497;SDS011;3282;48.358;10.958;2022-09-03T19:22:19;4.70;;;2.38;;
6497;SDS011;3282;48.358;10.958;2022-09-03T19:25:18;4.03;;;2.50;;
6497;SDS011;3282;48.358;10.958;2022-09-03T19:41:10;4.35;;;2.80;;
6497;SDS011;3282;48.358;10.958;2022-09-03T19:44:13;4.60;;;2.30;;
6497;SDS011;3282;48.358;10.958;2022-09-03T19:47:03;3.47;;;2.20;;
6497;SDS011;3282;48.358;10.958;2022-09-03T19:52:58;5.20;;;2.15;;
6497;SDS011;3282;48.358;10.958;2022-09-03T19:55:55;4.82;;;2.17;;
6497;SDS011;3282;48.358;10.958;2022-09-03T19:59:03;5.10;;;2.20;;
6497;SDS011;3282;48.358;10.958;2022-09-03T20:01:54;3.35;;;1.90;;
6497;SDS011;3282;48.358;10.958;2022-09-03T20:04:42;4.68;;;2.20;;
6497;SDS011;3282;48.358;10.958;2022-09-03T20:07:31;4.32;;;2.10;;
6497;SDS011;3282;48.358;10.958;2022-09-03T20:10:19;4.38;;;2.20;;
6497;SDS011;3282;48.358;10.958;2022-09-03T20:13:11;5.32;;;2.47;;
6497;SDS011;3282;48.358;10.958;2022-09-03T20:19:09;4.17;;;2.40;;
6497;SDS011;3282;48.358;10.958;2022-09-03T20:41:27;3.90;;;2.28;;
6497;SDS011;3282;48.358;10.958;2022-09-03T20:53:17;4.15;;;2.50;;
6497;SDS011;3282;48.358;10.958;2022-09-03T20:55:49;5.20;;;2.42;;
6497;SDS011;3282;48.358;10.958;2022-09-03T21:01:53;5.45;;;2.50;;
6497;SDS011;3282;48.358;10.958;2022-09-03T21:04:11;4.03;;;2.28;;
6497;SDS011;3282;48.358;10.958;2022-09-03T21:09:42;4.97;;;2.80;;
6497;SDS011;3282;48.358;10.958;2022-09-03T21:12:30;3.85;;;2.53;;
6497;SDS011;3282;48.358;10.958;2022-09-03T21:23:37;4.05;;;2.30;;
6497;SDS011;3282;48.358;10.958;2022-09-03T21:26:24;4.25;;;2.50;;
6497;SDS011;3282;48.358;10.958;2022-09-03T21:28:59;4.97;;;2.40;;
6497;SDS011;3282;48.358;10.958;2022-09-03T21:31:40;6.45;;;2.63;;
6497;SDS011;3282;48.358;10.958;2022-09-03T21:34:20;8.07;;;2.78;;
6497;SDS011;3282;48.358;10.958;2022-09-03T21:36:54;5.55;;;2.90;;
6497;SDS011;3282;48.358;10.958;2022-09-03T21:39:29;6.10;;;3.20;;
6497;SDS011;3282;48.358;10.958;2022-09-03T21:42:10;6.53;;;3.10;;